createdAt,value
2022-10-22T00:01:12.694Z,8.84
2022-10-22T00:03:40.805Z,9.29
2022-10-22T00:06:09.665Z,9.23
2022-10-22T00:08:39.298Z,9.64
2022-10-22T00:11:12.432Z,9.96
2022-10-22T00:13:40.510Z,9.62
2022-10-22T00:16:08.990Z,9.82
2022-10-22T00:18:37.358Z,10.14
2022-10-22T00:21:06.143Z,10.24
2022-10-22T00:23:34.257Z,9.83
2022-10-22T00:26:03.718Z,10.07
2022-10-22T00:28:31.719Z,9.84
2022-10-22T00:31:00.976Z,10.11
2022-10-22T00:33:30.169Z,10.05
2022-10-22T00:35:58.169Z,9.97
2022-10-22T00:38:26.221Z,9.94
2022-10-22T00:40:54.237Z,10.25
2022-10-22T00:43:23.719Z,10.01
2022-10-22T00:45:51.736Z,10.22
2022-10-22T00:48:23.096Z,10.21
2022-10-22T00:50:55.614Z,10.14
2022-10-22T00:53:27.459Z,10.23
2022-10-22T00:55:56.289Z,10.00
2022-10-22T00:58:28.495Z,10.28
2022-10-22T01:00:58.393Z,10.43
2022-10-22T01:03:26.698Z,10.12
2022-10-22T01:05:58.465Z,10.24
2022-10-22T01:08:37.799Z,10.26
2022-10-22T01:11:16.320Z,9.94
2022-10-22T01:13:53.623Z,10.08
2022-10-22T01:16:26.774Z,10.21
2022-10-22T01:19:05.184Z,9.95
2022-10-22T01:21:41.122Z,9.60
2022-10-22T01:24:39.131Z,8.81
2022-10-22T01:27:37.325Z,8.67
2022-10-22T01:30:09.205Z,8.68
2022-10-22T01:32:43.984Z,8.50
2022-10-22T01:35:15.462Z,8.66
2022-10-22T01:37:48.195Z,9.03
2022-10-22T01:40:17.851Z,8.77
2022-10-22T01:42:58.567Z,8.76
2022-10-22T01:45:29.711Z,8.16
2022-10-22T01:48:07.495Z,8.81
2022-10-22T01:50:49.602Z,8.42
2022-10-22T01:53:28.342Z,8.97
2022-10-22T01:56:28.789Z,9.18
2022-10-22T01:59:07.386Z,9.26
2022-10-22T02:01:47.638Z,9.18
2022-10-22T02:04:21.447Z,9.43
2022-10-22T02:06:53.073Z,9.03
2022-10-22T02:09:22.888Z,9.55
2022-10-22T02:11:52.379Z,9.72
2022-10-22T02:14:21.104Z,9.66
2022-10-22T02:16:51.766Z,10.00
2022-10-22T02:19:25.958Z,9.78
2022-10-22T02:21:57.091Z,9.49
2022-10-22T02:24:26.493Z,9.43
2022-10-22T02:27:04.943Z,9.52
2022-10-22T02:29:42.240Z,9.63
2022-10-22T02:32:16.702Z,9.63
2022-10-22T02:34:47.189Z,9.67
2022-10-22T02:37:17.048Z,9.68
2022-10-22T02:39:46.148Z,9.70
2022-10-22T02:42:14.332Z,9.95
2022-10-22T02:44:42.409Z,10.01
2022-10-22T02:47:11.712Z,9.68
2022-10-22T02:49:39.812Z,8.98
2022-10-22T02:52:07.838Z,9.18
2022-10-22T02:54:35.902Z,9.32
2022-10-22T02:57:04.039Z,8.91
2022-10-22T02:59:32.107Z,8.62
2022-10-22T03:02:00.069Z,8.73
2022-10-22T03:04:29.657Z,9.19
2022-10-22T03:06:57.727Z,9.37
2022-10-22T03:09:25.760Z,9.47
2022-10-22T03:11:53.839Z,9.34
2022-10-22T03:14:21.942Z,9.23
2022-10-22T03:16:49.954Z,9.40
2022-10-22T03:19:18.088Z,9.82
2022-10-22T03:21:51.787Z,9.87
2022-10-22T03:24:24.670Z,10.02
2022-10-22T03:26:53.982Z,10.01
2022-10-22T03:29:24.764Z,9.88
2022-10-22T03:31:53.424Z,10.25
2022-10-22T03:34:21.597Z,10.17
2022-10-22T03:36:52.060Z,10.15
2022-10-22T03:39:21.817Z,10.53
2022-10-22T03:41:51.253Z,10.40
2022-10-22T03:44:19.720Z,10.52
2022-10-22T03:46:47.757Z,10.29
2022-10-22T03:49:15.895Z,10.51
2022-10-22T03:51:43.832Z,10.43
2022-10-22T03:54:13.797Z,10.32
2022-10-22T03:56:41.738Z,10.62
2022-10-22T03:59:09.958Z,10.52
2022-10-22T04:01:38.010Z,10.42
2022-10-22T04:04:06.057Z,10.61
2022-10-22T04:06:34.064Z,10.68
2022-10-22T04:09:02.412Z,10.46
2022-10-22T04:11:32.162Z,10.36
2022-10-22T04:14:00.252Z,10.30
2022-10-22T04:16:31.067Z,10.15
2022-10-22T04:18:59.931Z,10.06
2022-10-22T04:21:28.317Z,9.96
2022-10-22T04:23:56.551Z,9.98
2022-10-22T04:26:24.826Z,10.16
2022-10-22T04:28:54.483Z,10.16
2022-10-22T04:31:24.296Z,9.75
2022-10-22T04:33:54.835Z,10.12
2022-10-22T04:36:23.723Z,10.22
2022-10-22T04:38:55.487Z,10.05
2022-10-22T04:41:26.158Z,10.03
2022-10-22T04:43:57.011Z,10.27
2022-10-22T04:46:26.096Z,10.18
2022-10-22T04:48:54.146Z,10.51
2022-10-22T04:51:24.298Z,10.38
2022-10-22T04:53:52.514Z,10.38
2022-10-22T04:56:23.035Z,10.44
2022-10-22T04:58:52.428Z,10.40
2022-10-22T05:01:24.457Z,10.25
2022-10-22T05:03:54.411Z,10.16
2022-10-22T05:06:23.325Z,10.09
2022-10-22T05:08:54.579Z,10.02
2022-10-22T05:11:24.214Z,10.19
2022-10-22T05:13:52.736Z,10.12
2022-10-22T05:16:22.115Z,10.24
2022-10-22T05:18:53.417Z,10.08
2022-10-22T05:21:22.672Z,10.01
2022-10-22T05:23:51.835Z,10.44
2022-10-22T05:26:22.130Z,10.36
2022-10-22T05:28:50.983Z,10.49
2022-10-22T05:31:24.763Z,10.35
2022-10-22T05:33:52.804Z,10.15
2022-10-22T05:36:23.079Z,10.31
2022-10-22T05:38:51.213Z,10.54
2022-10-22T05:41:20.792Z,10.66
2022-10-22T05:43:49.003Z,10.49
2022-10-22T05:46:22.494Z,10.44
2022-10-22T05:48:53.109Z,10.45
2022-10-22T05:51:21.874Z,10.18
2022-10-22T05:53:53.990Z,10.19
2022-10-22T05:56:22.904Z,10.32
2022-10-22T05:58:51.504Z,10.63
2022-10-22T06:01:21.265Z,10.57
2022-10-22T06:03:49.673Z,10.50
2022-10-22T06:06:22.361Z,10.59
2022-10-22T06:08:52.745Z,10.38
2022-10-22T06:11:22.178Z,10.17
2022-10-22T06:13:52.043Z,10.50
2022-10-22T06:16:22.736Z,10.38
2022-10-22T06:18:52.285Z,10.34
2022-10-22T06:21:23.252Z,10.29
2022-10-22T06:23:51.275Z,10.35
2022-10-22T06:26:19.254Z,10.13
2022-10-22T06:28:47.320Z,10.36
2022-10-22T06:31:15.827Z,10.25
2022-10-22T06:33:43.836Z,10.47
2022-10-22T06:36:13.585Z,10.32
2022-10-22T06:38:43.456Z,10.30
2022-10-22T06:41:14.862Z,10.58
2022-10-22T06:43:47.508Z,10.67
2022-10-22T06:46:19.915Z,10.76
2022-10-22T06:48:50.953Z,10.54
2022-10-22T06:51:19.594Z,10.67
2022-10-22T06:53:49.276Z,10.52
2022-10-22T06:56:19.949Z,10.51
2022-10-22T06:58:51.739Z,10.85
2022-10-22T07:01:21.844Z,10.78
2022-10-22T07:03:51.832Z,10.71
2022-10-22T07:06:20.967Z,10.69
2022-10-22T07:08:50.827Z,10.52
2022-10-22T07:11:20.794Z,10.73
2022-10-22T07:13:50.098Z,10.58
2022-10-22T07:16:19.485Z,10.56
2022-10-22T07:18:48.330Z,10.68
2022-10-22T07:21:19.011Z,10.64
2022-10-22T07:23:54.650Z,10.86
2022-10-22T07:26:25.416Z,11.04
2022-10-22T07:28:53.460Z,10.79
2022-10-22T07:31:21.673Z,10.73
2022-10-22T07:33:49.866Z,10.51
2022-10-22T07:36:18.717Z,10.45
2022-10-22T07:38:54.135Z,10.73
2022-10-22T07:41:23.652Z,10.68
2022-10-22T07:43:53.012Z,10.66
2022-10-22T07:46:21.762Z,10.71
2022-10-22T07:48:50.048Z,10.80
2022-10-22T07:51:21.131Z,10.89
2022-10-22T07:53:50.184Z,10.73
2022-10-22T07:56:18.171Z,10.34
2022-10-22T07:58:49.996Z,10.47
2022-10-22T08:01:24.180Z,10.23
2022-10-22T08:03:52.310Z,10.64
2022-10-22T08:06:20.705Z,10.65
2022-10-22T08:08:49.513Z,10.45
2022-10-22T08:11:17.813Z,10.71
2022-10-22T08:13:46.034Z,10.47
2022-10-22T08:16:15.401Z,10.53
2022-10-22T08:18:47.634Z,10.22
2022-10-22T08:21:17.137Z,10.58
2022-10-22T08:23:48.633Z,10.68
2022-10-22T08:26:20.066Z,10.82
2022-10-22T08:28:48.167Z,10.91
2022-10-22T08:31:16.228Z,10.83
2022-10-22T08:33:45.762Z,10.73
2022-10-22T08:36:13.880Z,10.60
2022-10-22T08:38:45.036Z,10.73
2022-10-22T08:41:14.958Z,10.84
2022-10-22T08:44:29.571Z,10.94
2022-10-22T08:47:18.723Z,10.85
2022-10-22T08:49:51.309Z,10.59
2022-10-22T08:52:20.988Z,10.54
2022-10-22T08:54:53.803Z,10.65
2022-10-22T08:57:45.656Z,10.76
2022-10-22T09:00:20.951Z,10.76
2022-10-22T09:03:00.611Z,10.81
2022-10-22T09:05:44.039Z,10.93
2022-10-22T09:08:51.272Z,10.53
2022-10-22T09:11:26.504Z,10.56
2022-10-22T09:13:56.181Z,10.55
2022-10-22T09:16:34.494Z,9.99
2022-10-22T09:19:13.430Z,10.38
2022-10-22T09:21:54.866Z,10.11
2022-10-22T09:24:35.185Z,10.16
2022-10-22T09:27:03.848Z,10.32
2022-10-22T09:29:35.185Z,10.61
2022-10-22T09:32:06.419Z,10.51
2022-10-22T09:34:34.861Z,10.66
2022-10-22T09:37:06.507Z,10.75
2022-10-22T09:39:39.450Z,10.94
2022-10-22T09:42:08.583Z,10.58
2022-10-22T09:44:38.768Z,10.47
2022-10-22T09:47:09.024Z,10.58
2022-10-22T09:49:37.800Z,11.03
2022-10-22T09:52:27.350Z,11.07
2022-10-22T09:54:55.395Z,10.93
2022-10-22T09:57:27.477Z,10.99
2022-10-22T09:59:57.504Z,11.10
2022-10-22T10:02:44.970Z,10.98
2022-10-22T10:05:20.845Z,11.36
2022-10-22T10:07:50.209Z,11.12
2022-10-22T10:10:22.536Z,10.84
2022-10-22T10:12:59.545Z,11.24
2022-10-22T10:15:31.128Z,11.17
2022-10-22T10:18:06.117Z,11.32
2022-10-22T10:20:43.241Z,11.30
2022-10-22T10:23:23.104Z,11.33
2022-10-22T10:26:01.015Z,11.30
2022-10-22T10:29:02.419Z,11.28
2022-10-22T10:31:45.730Z,11.27
2022-10-22T10:34:26.615Z,11.21
2022-10-22T10:37:02.624Z,10.71
2022-10-22T10:39:43.345Z,11.22
2022-10-22T10:42:36.262Z,11.41
2022-10-22T10:45:18.882Z,10.97
2022-10-22T10:48:13.504Z,11.16
2022-10-22T10:50:52.934Z,11.05
2022-10-22T10:53:33.191Z,11.26
2022-10-22T10:56:09.873Z,10.98
2022-10-22T10:58:49.237Z,11.16
2022-10-22T11:01:28.710Z,11.37
2022-10-22T11:04:13.018Z,11.34
2022-10-22T11:06:43.220Z,11.45
2022-10-22T11:09:23.558Z,11.50
2022-10-22T11:11:58.133Z,11.61
2022-10-22T11:14:33.633Z,11.67
2022-10-22T11:17:06.167Z,11.16
2022-10-22T11:19:50.671Z,11.54
2022-10-22T11:22:26.972Z,11.64
2022-10-22T11:25:01.229Z,11.61
2022-10-22T11:27:37.119Z,11.33
2022-10-22T11:30:12.662Z,11.35
2022-10-22T11:32:42.887Z,11.60
2022-10-22T11:35:17.512Z,11.57
2022-10-22T11:37:48.369Z,11.79
2022-10-22T11:40:20.785Z,11.65
2022-10-22T11:42:54.241Z,11.70
2022-10-22T11:45:30.923Z,11.63
2022-10-22T11:48:09.561Z,11.20
2022-10-22T11:50:50.897Z,11.51
2022-10-22T11:53:21.946Z,11.67
2022-10-22T11:55:52.567Z,11.72
2022-10-22T11:58:42.282Z,11.66
2022-10-22T12:01:28.033Z,11.66
2022-10-22T12:04:23.382Z,11.71
2022-10-22T12:06:59.603Z,11.98
2022-10-22T12:09:30.404Z,11.78
2022-10-22T12:12:05.813Z,11.97
2022-10-22T12:14:51.709Z,11.59
2022-10-22T12:17:22.798Z,11.78
2022-10-22T12:19:58.493Z,11.50
2022-10-22T12:22:31.756Z,11.96
2022-10-22T12:25:03.203Z,11.64
2022-10-22T12:27:37.136Z,11.77
2022-10-22T12:30:19.650Z,12.02
2022-10-22T12:32:47.751Z,11.78
2022-10-22T12:35:19.347Z,11.95
2022-10-22T12:37:51.149Z,12.25
2022-10-22T12:40:21.568Z,12.06
2022-10-22T12:42:52.029Z,11.79
2022-10-22T12:45:24.062Z,11.82
2022-10-22T12:47:58.954Z,11.57
2022-10-22T12:50:34.031Z,11.52
2022-10-22T12:53:02.196Z,11.27
2022-10-22T12:55:34.898Z,11.48
2022-10-22T12:58:06.826Z,11.78
2022-10-22T13:00:37.352Z,11.67
2022-10-22T13:03:08.135Z,11.85
2022-10-22T13:05:39.843Z,11.97
2022-10-22T13:08:11.858Z,11.91
2022-10-22T13:10:42.551Z,11.75
2022-10-22T13:13:31.959Z,11.74
2022-10-22T13:16:24.279Z,11.19
2022-10-22T13:18:54.010Z,11.46
2022-10-22T13:21:34.220Z,11.72
2022-10-22T13:24:05.148Z,11.63
2022-10-22T13:26:36.308Z,11.99
2022-10-22T13:29:12.105Z,11.88
2022-10-22T13:31:47.251Z,11.81
2022-10-22T13:34:18.099Z,11.93
2022-10-22T13:36:46.218Z,11.92
2022-10-22T13:39:18.779Z,12.01
2022-10-22T13:41:47.938Z,12.02
2022-10-22T13:44:15.937Z,12.11
2022-10-22T13:46:47.160Z,12.21
2022-10-22T13:49:17.922Z,12.23
2022-10-22T13:51:46.180Z,11.95
2022-10-22T13:54:17.650Z,11.95
2022-10-22T13:56:46.127Z,12.10
2022-10-22T13:59:15.411Z,11.94
2022-10-22T14:01:47.112Z,12.27
2022-10-22T14:04:15.632Z,11.99
2022-10-22T14:06:43.906Z,12.05
2022-10-22T14:09:16.099Z,11.87
2022-10-22T14:11:44.161Z,12.01
2022-10-22T14:14:14.358Z,11.84
2022-10-22T14:16:42.764Z,11.95
2022-10-22T14:19:17.675Z,12.19
2022-10-22T14:21:45.778Z,12.17
2022-10-22T14:24:13.756Z,11.78
2022-10-22T14:26:41.926Z,11.93
2022-10-22T14:29:12.450Z,11.68
2022-10-22T14:31:44.523Z,11.94
2022-10-22T14:34:16.777Z,11.63
2022-10-22T14:36:45.481Z,11.60
2022-10-22T14:39:13.620Z,11.73
2022-10-22T14:41:42.517Z,11.86
2022-10-22T14:44:14.069Z,11.68
2022-10-22T14:46:44.561Z,11.38
2022-10-22T14:49:14.507Z,11.87
2022-10-22T14:51:42.933Z,11.71
2022-10-22T14:54:10.927Z,11.56
2022-10-22T14:56:41.551Z,11.56
2022-10-22T14:59:09.676Z,11.55
2022-10-22T15:01:38.874Z,11.38
2022-10-22T15:04:09.350Z,11.36
2022-10-22T15:06:38.859Z,11.47
2022-10-22T15:09:06.952Z,11.55
2022-10-22T15:11:37.384Z,11.83
2022-10-22T15:14:05.635Z,11.69
2022-10-22T15:16:35.980Z,11.80
2022-10-22T15:19:06.669Z,11.50
2022-10-22T15:21:34.976Z,11.58
2022-10-22T15:24:04.780Z,11.71
2022-10-22T15:26:32.924Z,11.71
2022-10-22T15:29:02.686Z,11.49
2022-10-22T15:31:46.427Z,11.63
2022-10-22T15:34:16.682Z,11.56
2022-10-22T15:36:44.678Z,11.31
2022-10-22T15:39:16.481Z,11.22
2022-10-22T15:41:49.067Z,11.41
2022-10-22T15:44:19.157Z,11.02
2022-10-22T15:46:47.244Z,11.18
2022-10-22T15:49:15.541Z,10.85
2022-10-22T15:51:43.615Z,11.09
2022-10-22T15:54:17.188Z,10.72
2022-10-22T15:56:45.417Z,10.83
2022-10-22T15:59:15.407Z,11.15
2022-10-22T16:01:44.256Z,10.68
2022-10-22T16:04:12.834Z,10.38
2022-10-22T16:06:44.564Z,10.82
2022-10-22T16:09:18.873Z,10.50
2022-10-22T16:11:49.553Z,10.70
2022-10-22T16:14:20.939Z,11.07
2022-10-22T16:16:51.782Z,10.72
2022-10-22T16:19:21.772Z,10.53
2022-10-22T16:21:51.608Z,10.66
2022-10-22T16:24:24.015Z,10.54
2022-10-22T16:26:53.255Z,10.59
2022-10-22T16:29:21.263Z,10.02
2022-10-22T16:31:49.304Z,10.30
2022-10-22T16:34:17.240Z,10.19
2022-10-22T16:36:45.310Z,10.20
2022-10-22T16:39:14.970Z,10.22
2022-10-22T16:41:44.291Z,9.89
2022-10-22T16:44:13.332Z,9.91
2022-10-22T16:46:41.913Z,9.97
2022-10-22T16:49:14.081Z,9.33
2022-10-22T16:51:42.153Z,9.82
2022-10-22T16:54:13.359Z,9.75
2022-10-22T16:56:41.729Z,9.71
2022-10-22T16:59:11.220Z,9.41
2022-10-22T17:01:41.237Z,9.41
2022-10-22T17:04:10.520Z,9.63
2022-10-22T17:06:38.620Z,9.20
2022-10-22T17:09:06.842Z,9.32
2022-10-22T17:11:37.086Z,9.21
2022-10-22T17:14:07.565Z,9.27
2022-10-22T17:16:36.953Z,9.17
2022-10-22T17:19:07.787Z,9.54
2022-10-22T17:21:35.857Z,9.31
2022-10-22T17:24:04.896Z,9.33
2022-10-22T17:26:34.719Z,9.04
2022-10-22T17:29:06.218Z,9.18
2022-10-22T17:31:37.455Z,9.26
2022-10-22T17:34:07.789Z,8.52
2022-10-22T17:36:38.417Z,9.05
2022-10-22T17:39:08.240Z,8.88
2022-10-22T17:41:38.764Z,8.91
2022-10-22T17:44:09.868Z,8.60
2022-10-22T17:46:43.742Z,8.95
2022-10-22T17:49:17.468Z,8.78
2022-10-22T17:51:48.578Z,8.90
2022-10-22T17:54:19.542Z,8.66
2022-10-22T17:56:47.812Z,8.74
2022-10-22T17:59:17.843Z,8.80
2022-10-22T18:01:48.788Z,8.47
2022-10-22T18:04:20.216Z,8.35
2022-10-22T18:06:51.758Z,7.66
2022-10-22T18:09:26.429Z,8.45
2022-10-22T18:11:55.943Z,8.73
2022-10-22T18:14:33.137Z,7.55
2022-10-22T18:17:04.988Z,8.01
2022-10-22T18:19:33.493Z,8.13
2022-10-22T18:22:57.785Z,8.39
2022-10-22T18:25:26.222Z,7.72
2022-10-22T18:27:56.323Z,7.75
2022-10-22T18:30:29.891Z,7.25
2022-10-22T18:32:59.334Z,8.12
2022-10-22T18:35:27.923Z,8.33
2022-10-22T18:37:56.033Z,7.98
2022-10-22T18:40:24.052Z,8.07
2022-10-22T18:42:52.143Z,8.07
2022-10-22T18:45:20.327Z,8.07
2022-10-22T18:47:48.466Z,8.31
2022-10-22T18:50:20.563Z,8.05
2022-10-22T18:52:48.633Z,7.57
2022-10-22T18:55:16.759Z,7.75
2022-10-22T18:57:44.809Z,8.03
2022-10-22T19:00:14.554Z,7.42
2022-10-22T19:02:44.501Z,7.05
2022-10-22T19:05:22.024Z,7.68
2022-10-22T19:07:51.777Z,7.84
2022-10-22T19:10:20.053Z,7.61
2022-10-22T19:12:48.123Z,7.42
2022-10-22T19:15:16.269Z,7.41
2022-10-22T19:17:44.674Z,7.62
2022-10-22T19:20:14.309Z,7.77
2022-10-22T19:22:42.293Z,7.78
2022-10-22T19:25:12.230Z,7.89
2022-10-22T19:27:40.841Z,7.99
2022-10-22T19:30:09.904Z,7.94
2022-10-22T19:32:37.927Z,7.59
2022-10-22T19:35:06.598Z,7.67
2022-10-22T19:37:35.440Z,7.85
2022-10-22T19:40:03.394Z,7.57
2022-10-22T19:42:32.987Z,7.71
2022-10-22T19:45:01.069Z,7.93
2022-10-22T19:47:29.351Z,7.65
2022-10-22T19:49:57.517Z,7.61
2022-10-22T19:52:25.459Z,7.67
2022-10-22T19:54:53.422Z,7.89
2022-10-22T19:57:21.337Z,7.83
2022-10-22T19:59:50.948Z,7.65
2022-10-22T20:02:19.794Z,7.46
2022-10-22T20:04:49.896Z,7.46
2022-10-22T20:07:18.289Z,7.55
2022-10-22T20:09:46.253Z,7.75
2022-10-22T20:12:14.265Z,7.74
2022-10-22T20:14:42.180Z,7.67
2022-10-22T20:17:11.544Z,7.63
2022-10-22T20:19:39.752Z,7.57
2022-10-22T20:22:07.741Z,7.53
2022-10-22T20:24:35.685Z,7.62
2022-10-22T20:27:03.716Z,7.47
2022-10-22T20:29:31.671Z,7.69
2022-10-22T20:32:01.586Z,7.65
2022-10-22T20:34:32.948Z,7.92
2022-10-22T20:37:00.988Z,7.73
2022-10-22T20:39:28.888Z,7.84
2022-10-22T20:41:56.874Z,7.73
2022-10-22T20:44:24.869Z,7.62
2022-10-22T20:46:53.473Z,7.67
2022-10-22T20:49:21.806Z,7.64
2022-10-22T20:51:51.345Z,7.40
2022-10-22T20:54:20.164Z,7.42
2022-10-22T20:56:49.001Z,7.33
2022-10-22T20:59:17.340Z,7.44
2022-10-22T21:01:48.062Z,7.12
2022-10-22T21:04:17.114Z,7.22
2022-10-22T21:06:45.047Z,7.38
2022-10-22T21:09:16.394Z,7.37
2022-10-22T21:11:45.146Z,7.43
2022-10-22T21:14:15.514Z,7.28
2022-10-22T21:16:45.371Z,7.43
2022-10-22T21:19:13.399Z,7.27
2022-10-22T21:21:41.420Z,7.29
2022-10-22T21:24:09.850Z,7.07
2022-10-22T21:26:39.682Z,6.99
2022-10-22T21:29:08.173Z,7.32
2022-10-22T21:31:36.505Z,7.21
2022-10-22T21:34:04.496Z,7.05
2022-10-22T21:36:32.498Z,6.93
2022-10-22T21:39:01.771Z,7.09
2022-10-22T21:41:29.824Z,7.02
2022-10-22T21:43:59.324Z,7.05
2022-10-22T21:46:30.602Z,7.28
2022-10-22T21:49:01.551Z,6.97
2022-10-22T21:51:30.855Z,6.65
2022-10-22T21:53:59.534Z,6.42
2022-10-22T21:56:32.533Z,6.76
2022-10-22T21:59:01.970Z,6.59
2022-10-22T22:01:34.412Z,6.46
2022-10-22T22:04:02.713Z,6.62
2022-10-22T22:06:33.547Z,6.50
2022-10-22T22:09:03.460Z,6.67
2022-10-22T22:11:31.905Z,6.87
2022-10-22T22:14:01.429Z,6.76
2022-10-22T22:16:32.730Z,6.79
2022-10-22T22:19:05.848Z,6.53
2022-10-22T22:21:36.061Z,6.30
2022-10-22T22:24:04.339Z,6.07
2022-10-22T22:26:32.471Z,6.27
2022-10-22T22:29:02.486Z,6.45
2022-10-22T22:31:32.407Z,6.58
2022-10-22T22:34:01.843Z,6.67
2022-10-22T22:36:34.439Z,6.51
2022-10-22T22:39:04.915Z,6.79
2022-10-22T22:41:33.124Z,6.66
2022-10-22T22:44:02.643Z,6.64
2022-10-22T22:46:30.836Z,6.72
2022-10-22T22:48:58.957Z,6.53
2022-10-22T22:51:26.954Z,6.71
2022-10-22T22:53:55.238Z,6.65
2022-10-22T22:56:25.312Z,6.78
2022-10-22T22:58:53.977Z,6.71
2022-10-22T23:01:25.143Z,6.75
2022-10-22T23:03:56.169Z,6.77
2022-10-22T23:06:25.416Z,6.73
2022-10-22T23:08:54.396Z,6.61
2022-10-22T23:11:24.806Z,6.70
2022-10-22T23:13:55.005Z,6.18
2022-10-22T23:16:26.772Z,6.37
2022-10-22T23:18:56.321Z,6.43
2022-10-22T23:21:26.819Z,6.19
2022-10-22T23:23:56.491Z,6.39
2022-10-22T23:26:26.848Z,6.30
2022-10-22T23:28:55.875Z,6.40
2022-10-22T23:31:25.204Z,6.53
2022-10-22T23:33:53.887Z,6.46
2022-10-22T23:36:21.942Z,6.32
2022-10-22T23:38:50.317Z,6.21
2022-10-22T23:41:18.593Z,6.34
2022-10-22T23:43:46.694Z,6.40
2022-10-22T23:46:15.417Z,6.50
2022-10-22T23:48:44.761Z,6.35
2022-10-22T23:51:14.489Z,6.30
2022-10-22T23:53:43.969Z,6.59
2022-10-22T23:56:15.502Z,6.32
2022-10-22T23:58:43.713Z,6.48
